Time,TemperatureF,DewpointF,PressureIn,WindDirection,WindDirectionDegrees,WindSpeedMPH,WindSpeedGustMPH,Humidity,HourlyPrecipIn,Conditions,Clouds,dailyrainin,SoftwareType,DateUTC
2013-01-21 00:10:00,20.0,3.0,29.74,WNW,282,17.0,18.0,47,0.00,,,0.00,Wunderground v.1.15,2013-01-21 05:10:00,
2013-01-21 00:20:00,19.5,2.5,29.74,WSW,257,16.0,16.0,47,0.00,,,0.00,Wunderground v.1.15,2013-01-21 05:20:00,
2013-01-21 00:30:00,19.2,2.2,29.74,West,280,15.0,18.0,47,0.00,,,0.00,Wunderground v.1.15,2013-01-21 05:30:00,
2013-01-21 00:40:00,18.8,1.4,29.75,West,271,17.0,17.0,46,0.00,,,0.00,Wunderground v.1.15,2013-01-21 05:40:00,
2013-01-21 00:50:00,18.4,1.5,29.75,WSW,245,16.0,27.0,47,0.00,,,0.00,Wunderground v.1.15,2013-01-21 05:50:00,
2013-01-21 01:00:00,18.1,0.3,29.75,WNW,290,17.0,17.0,45,0.00,,,0.00,Wunderground v.1.15,2013-01-21 06:00:00,
2013-01-21 01:10:00,17.8,0.0,29.76,West,274,17.0,17.0,45,0.00,,,0.00,Wunderground v.1.15,2013-01-21 06:10:00,
2013-01-21 01:20:00,17.7,0.4,29.76,SW,236,17.0,17.0,46,0.00,,,0.00,Wunderground v.1.15,2013-01-21 06:20:00,
2013-01-21 01:30:00,17.3,-0.4,29.76,West,263,19.0,19.0,45,0.00,,,0.00,Wunderground v.1.15,2013-01-21 06:30:00,
2013-01-21 01:40:00,17.0,-0.7,29.77,West,270,18.0,18.0,45,0.00,,,0.00,Wunderground v.1.15,2013-01-21 06:40:00,
2013-01-21 01:50:00,16.7,-0.5,29.78,West,260,17.0,17.0,46,0.00,,,0.00,Wunderground v.1.15,2013-01-21 06:50:00,
2013-01-21 02:00:00,16.4,-0.8,29.78,WSW,244,15.0,15.0,46,0.00,,,0.00,Wunderground v.1.15,2013-01-21 07:00:00,
2013-01-21 02:10:00,16.2,-1.0,29.79,West,266,15.0,15.0,46,0.00,,,0.00,Wunderground v.1.15,2013-01-21 07:10:00,
2013-01-21 02:20:00,15.9,-0.8,29.80,WNW,288,12.0,12.0,47,0.00,,,0.00,Wunderground v.1.15,2013-01-21 07:20:00,
2013-01-21 02:30:00,15.7,-1.4,29.80,West,264,14.0,15.0,46,0.00,,,0.00,Wunderground v.1.15,2013-01-21 07:30:00,
2013-01-21 02:40:00,15.6,-1.1,29.81,WSW,257,14.0,16.0,47,0.00,,,0.00,Wunderground v.1.15,2013-01-21 07:40:00,
2013-01-21 02:50:00,15.2,-1.5,29.82,West,267,13.0,13.0,47,0.00,,,0.00,Wunderground v.1.15,2013-01-21 07:50:00,
2013-01-21 03:00:00,14.9,-1.3,29.82,West,279,13.0,16.0,48,0.00,,,0.00,Wunderground v.1.15,2013-01-21 08:00:00,
2013-01-21 03:10:00,14.8,-0.9,29.82,WSW,252,13.0,13.0,49,0.00,,,0.00,Wunderground v.1.15,2013-01-21 08:10:00,
2013-01-21 03:20:00,14.6,-1.1,29.82,West,277,12.0,12.0,49,0.00,,,0.00,Wunderground v.1.15,2013-01-21 08:20:00,
2013-01-21 03:30:00,14.3,-0.6,29.82,WNW,290,10.0,10.0,51,0.00,,,0.00,Wunderground v.1.15,2013-01-21 08:30:00,
2013-01-21 03:40:00,14.1,-1.2,29.83,West,278,12.0,13.0,50,0.00,,,0.00,Wunderground v.1.15,2013-01-21 08:40:00,
2013-01-21 03:50:00,14.0,-1.7,29.83,WNW,293,13.0,13.0,49,0.00,,,0.00,Wunderground v.1.15,2013-01-21 08:50:00,
2013-01-21 04:00:00,13.8,-1.9,29.83,WNW,282,13.0,13.0,49,0.00,,,0.00,Wunderground v.1.15,2013-01-21 09:00:00,
2013-01-21 04:10:00,13.5,-1.7,29.84,WSW,254,10.0,12.0,50,0.00,,,0.00,Wunderground v.1.15,2013-01-21 09:10:00,
2013-01-21 04:20:00,13.3,-2.3,29.84,WSW,244,12.0,12.0,49,0.00,,,0.00,Wunderground v.1.15,2013-01-21 09:20:00,
2013-01-21 04:30:00,13.1,-3.4,29.84,West,264,13.0,13.0,47,0.00,,,0.00,Wunderground v.1.15,2013-01-21 09:30:00,
2013-01-21 04:40:00,12.9,-3.6,29.85,NW,312,12.0,13.0,47,0.00,,,0.00,Wunderground v.1.15,2013-01-21 09:40:00,
2013-01-21 04:50:00,12.6,-3.4,29.85,WNW,285,13.0,15.0,48,0.00,,,0.00,Wunderground v.1.15,2013-01-21 09:50:00,
2013-01-21 05:00:00,12.3,-3.3,29.85,West,259,12.0,12.0,49,0.00,,,0.00,Wunderground v.1.15,2013-01-21 10:00:00,
2013-01-21 05:10:00,12.1,-3.4,29.86,WSW,252,13.0,13.0,49,0.00,,,0.00,Wunderground v.1.15,2013-01-21 10:10:00,
2013-01-21 05:20:00,11.9,-3.6,29.86,West,264,12.0,12.0,49,0.00,,,0.00,Wunderground v.1.15,2013-01-21 10:20:00,
2013-01-21 05:30:00,11.6,-3.5,29.86,WNW,298,13.0,16.0,50,0.00,,,0.00,Wunderground v.1.15,2013-01-21 10:30:00,
2013-01-21 05:40:00,11.4,-3.7,29.87,West,271,14.0,15.0,50,0.00,,,0.00,Wunderground v.1.15,2013-01-21 10:40:00,
2013-01-21 05:50:00,11.1,-3.9,29.89,West,264,11.0,12.0,50,0.00,,,0.00,Wunderground v.1.15,2013-01-21 10:50:00,
2013-01-21 06:00:00,10.9,-4.1,29.89,WSW,245,11.0,11.0,50,0.00,,,0.00,Wunderground v.1.15,2013-01-21 11:00:00,
2013-01-21 06:10:00,10.9,-3.3,29.89,WSW,245,12.0,12.0,52,0.00,,,0.00,Wunderground v.1.15,2013-01-21 11:10:00,
2013-01-21 06:20:00,10.7,-3.9,29.90,SW,231,12.0,15.0,51,0.00,,,0.00,Wunderground v.1.15,2013-01-21 11:20:00,
2013-01-21 06:30:00,10.5,-4.1,29.90,West,264,12.0,12.0,51,0.00,,,0.00,Wunderground v.1.15,2013-01-21 11:30:00,
2013-01-21 06:40:00,10.4,-4.2,29.90,SW,235,11.0,11.0,51,0.00,,,0.00,Wunderground v.1.15,2013-01-21 11:40:00,
2013-01-21 06:50:00,10.4,-4.2,29.91,SW,231,11.0,12.0,51,0.00,,,0.00,Wunderground v.1.15,2013-01-21 11:50:00,
2013-01-21 07:00:00,10.2,-4.4,29.91,West,269,11.0,11.0,51,0.00,,,0.00,Wunderground v.1.15,2013-01-21 12:00:00,
2013-01-21 07:10:00,10.2,-4.4,29.91,WSW,251,11.0,11.0,51,0.00,,,0.00,Wunderground v.1.15,2013-01-21 12:10:00,
2013-01-21 07:20:00,10.2,-4.4,29.91,WSW,245,13.0,15.0,51,0.00,,,0.00,Wunderground v.1.15,2013-01-21 12:20:00,
2013-01-21 07:30:00,10.2,-4.4,29.91,West,264,11.0,11.0,51,0.00,,,0.00,Wunderground v.1.15,2013-01-21 12:30:00,
2013-01-21 07:40:00,10.2,-4.4,29.91,West,266,10.0,10.0,51,0.00,,,0.00,Wunderground v.1.15,2013-01-21 12:40:00,
2013-01-21 07:50:00,10.2,-4.4,29.92,WSW,248,11.0,11.0,51,0.00,,,0.00,Wunderground v.1.15,2013-01-21 12:50:00,
2013-01-21 08:00:00,10.4,-4.2,29.92,West,266,9.0,9.0,51,0.00,,,0.00,Wunderground v.1.15,2013-01-21 13:00:00,
2013-01-21 08:10:00,10.5,-4.1,29.93,West,274,8.0,8.0,51,0.00,,,0.00,Wunderground v.1.15,2013-01-21 13:10:00,
2013-01-21 08:20:00,10.7,-4.3,29.94,WNW,286,9.0,9.0,50,0.00,,,0.00,Wunderground v.1.15,2013-01-21 13:20:00,
2013-01-21 08:30:00,11.1,-4.4,29.94,WSW,257,9.0,10.0,49,0.00,,,0.00,Wunderground v.1.15,2013-01-21 13:30:00,
2013-01-21 08:40:00,11.2,-4.3,29.94,West,259,12.0,12.0,49,0.00,,,0.00,Wunderground v.1.15,2013-01-21 13:40:00,
2013-01-21 08:50:00,11.6,-3.9,29.94,West,276,11.0,11.0,49,0.00,,,0.00,Wunderground v.1.15,2013-01-21 13:50:00,
2013-01-21 09:00:00,11.9,-4.5,29.94,WNW,287,12.0,14.0,47,0.00,,,0.00,Wunderground v.1.15,2013-01-21 14:00:00,
2013-01-21 09:10:00,12.3,-4.1,29.95,WSW,245,13.0,13.0,47,0.00,,,0.00,Wunderground v.1.15,2013-01-21 14:10:00,
2013-01-21 09:20:00,12.8,-4.6,29.95,WSW,250,12.0,13.0,45,0.00,,,0.00,Wunderground v.1.15,2013-01-21 14:20:00,
2013-01-21 09:30:00,13.1,-5.2,29.95,WSW,258,12.0,15.0,43,0.00,,,0.00,Wunderground v.1.15,2013-01-21 14:30:00,
2013-01-21 09:40:00,13.3,-5.6,29.95,WSW,250,13.0,15.0,42,0.00,,,0.00,Wunderground v.1.15,2013-01-21 14:40:00,
2013-01-21 09:50:00,13.3,-7.1,29.96,West,264,16.0,16.0,39,0.00,,,0.00,Wunderground v.1.15,2013-01-21 14:50:00,
2013-01-21 10:00:00,13.6,-5.8,29.96,West,269,14.0,15.0,41,0.00,,,0.00,Wunderground v.1.15,2013-01-21 15:00:00,
2013-01-21 10:10:00,14.1,-6.4,29.96,West,263,12.0,17.0,39,0.00,,,0.00,Wunderground v.1.15,2013-01-21 15:10:00,
2013-01-21 10:20:00,14.3,-6.2,29.97,West,261,12.0,12.0,39,0.00,,,0.00,Wunderground v.1.15,2013-01-21 15:20:00,
2013-01-21 10:30:00,14.4,-7.7,29.97,West,280,13.0,13.0,36,0.00,,,0.00,Wunderground v.1.15,2013-01-21 15:30:00,
2013-01-21 10:40:00,15.1,-7.7,29.97,WNW,282,11.0,16.0,35,0.00,,,0.00,Wunderground v.1.15,2013-01-21 15:40:00,
2013-01-21 10:50:00,15.2,-6.5,29.96,WNW,292,11.0,13.0,37,0.00,,,0.00,Wunderground v.1.15,2013-01-21 15:50:00,
2013-01-21 11:00:00,15.4,-6.8,29.96,West,267,14.0,14.0,36,0.00,,,0.00,Wunderground v.1.15,2013-01-21 16:00:00,
2013-01-21 11:10:00,16.2,-7.3,29.95,West,267,10.0,12.0,34,0.00,,,0.00,Wunderground v.1.15,2013-01-21 16:10:00,
2013-01-21 11:20:00,15.9,-8.2,29.94,West,264,14.0,14.0,33,0.00,,,0.00,Wunderground v.1.15,2013-01-21 16:20:00,
2013-01-21 11:30:00,16.2,-7.9,29.94,West,264,14.0,16.0,33,0.00,,,0.00,Wunderground v.1.15,2013-01-21 16:30:00,
2013-01-21 11:40:00,16.5,-7.0,29.93,West,262,13.0,19.0,34,0.00,,,0.00,Wunderground v.1.15,2013-01-21 16:40:00,
2013-01-21 11:50:00,16.9,-6.7,29.92,West,278,12.0,12.0,34,0.00,,,0.00,Wunderground v.1.15,2013-01-21 16:50:00,
2013-01-21 12:00:00,17.2,-6.4,29.92,WNW,293,11.0,11.0,34,0.00,,,0.00,Wunderground v.1.15,2013-01-21 17:00:00,
2013-01-21 12:10:00,17.5,-6.8,29.92,West,278,10.0,10.0,33,0.00,,,0.00,Wunderground v.1.15,2013-01-21 17:10:00,
2013-01-21 12:20:00,17.3,-6.9,29.91,WSW,245,10.0,12.0,33,0.00,,,0.00,Wunderground v.1.15,2013-01-21 17:20:00,
2013-01-21 12:30:00,17.8,-7.1,29.91,WSW,240,8.0,8.0,32,0.00,,,0.00,Wunderground v.1.15,2013-01-21 17:30:00,
2013-01-21 12:40:00,18.0,-7.6,29.92,West,278,9.0,12.0,31,0.00,,,0.00,Wunderground v.1.15,2013-01-21 17:40:00,
2013-01-21 12:50:00,18.6,-7.1,29.91,West,271,9.0,12.0,31,0.00,,,0.00,Wunderground v.1.15,2013-01-21 17:50:00,
2013-01-21 13:00:00,18.6,-6.4,29.91,WNW,282,9.0,12.0,32,0.00,,,0.00,Wunderground v.1.15,2013-01-21 18:00:00,
2013-01-21 13:10:00,19.1,-8.7,29.91,West,263,9.0,9.0,28,0.00,,,0.00,Wunderground v.1.15,2013-01-21 18:10:00,
2013-01-21 13:20:00,19.2,-6.5,29.90,WNW,285,8.0,10.0,31,0.00,,,0.00,Wunderground v.1.15,2013-01-21 18:20:00,
2013-01-21 13:30:00,19.2,-8.6,29.90,West,277,9.0,9.0,28,0.00,,,0.00,Wunderground v.1.15,2013-01-21 18:30:00,
2013-01-21 13:40:00,19.4,-7.7,29.90,WSW,242,9.0,9.0,29,0.00,,,0.00,Wunderground v.1.15,2013-01-21 18:40:00,
2013-01-21 13:50:00,19.9,-8.8,29.91,West,270,6.0,8.0,27,0.00,,,0.00,Wunderground v.1.15,2013-01-21 18:50:00,
2013-01-21 14:00:00,19.9,-8.0,29.91,WSW,255,9.0,9.0,28,0.00,,,0.00,Wunderground v.1.15,2013-01-21 19:00:00,
2013-01-21 14:10:00,20.0,-8.7,29.91,West,269,6.0,6.0,27,0.00,,,0.00,Wunderground v.1.15,2013-01-21 19:10:00,
2013-01-21 14:20:00,20.2,-7.8,29.91,West,268,5.0,5.0,28,0.00,,,0.00,Wunderground v.1.15,2013-01-21 19:20:00,
2013-01-21 14:30:00,20.5,-6.1,29.91,West,268,4.0,4.0,30,0.00,,,0.00,Wunderground v.1.15,2013-01-21 19:30:00,
2013-01-21 14:40:00,20.8,-7.2,29.91,West,268,5.0,6.0,28,0.00,,,0.00,Wunderground v.1.15,2013-01-21 19:40:00,
2013-01-21 14:50:00,21.0,-7.8,29.91,WNW,293,6.0,6.0,27,0.00,,,0.00,Wunderground v.1.15,2013-01-21 19:50:00,
2013-01-21 15:00:00,20.6,-8.2,29.91,WSW,256,8.0,8.0,27,0.00,,,0.00,Wunderground v.1.15,2013-01-21 20:00:00,
2013-01-21 15:10:00,20.5,-6.1,29.91,West,260,6.0,6.0,30,0.00,,,0.00,Wunderground v.1.15,2013-01-21 20:10:00,
2013-01-21 15:20:00,20.2,-7.0,29.91,West,272,6.0,7.0,29,0.00,,,0.00,Wunderground v.1.15,2013-01-21 20:20:00,
2013-01-21 15:30:00,20.2,-7.8,29.91,West,271,5.0,5.0,28,0.00,,,0.00,Wunderground v.1.15,2013-01-21 20:30:00,
2013-01-21 15:40:00,20.2,-8.5,29.91,West,265,4.0,4.0,27,0.00,,,0.00,Wunderground v.1.15,2013-01-21 20:40:00,
2013-01-21 15:50:00,20.2,-6.3,29.91,West,270,4.0,7.0,30,0.00,,,0.00,Wunderground v.1.15,2013-01-21 20:50:00,
2013-01-21 16:00:00,20.2,-7.8,29.91,West,259,4.0,4.0,28,0.00,,,0.00,Wunderground v.1.15,2013-01-21 21:00:00,
2013-01-21 16:10:00,20.2,-6.3,29.91,WSW,256,3.0,4.0,30,0.00,,,0.00,Wunderground v.1.15,2013-01-21 21:10:00,
2013-01-21 16:20:00,20.2,-5.7,29.91,WSW,256,2.0,2.0,31,0.00,,,0.00,Wunderground v.1.15,2013-01-21 21:20:00,
2013-01-21 16:30:00,20.0,-5.8,29.91,WSW,256,1.0,1.0,31,0.00,,,0.00,Wunderground v.1.15,2013-01-21 21:30:00,
2013-01-21 16:40:00,19.9,-5.9,29.91,WSW,256,0.0,0.0,31,0.00,,,0.00,Wunderground v.1.15,2013-01-21 21:40:00,
2013-01-21 16:50:00,19.5,-3.2,29.91,WSW,256,0.0,0.0,36,0.00,,,0.00,Wunderground v.1.15,2013-01-21 21:50:00,
2013-01-21 17:00:00,19.2,-4.0,29.91,WSW,256,0.0,0.0,35,0.00,,,0.00,Wunderground v.1.15,2013-01-21 22:00:00,
2013-01-21 17:10:00,19.1,-4.7,29.90,WSW,256,0.0,0.0,34,0.00,,,0.00,Wunderground v.1.15,2013-01-21 22:10:00,
2013-01-21 17:20:00,18.9,-2.6,29.91,WSW,256,0.0,1.0,38,0.00,,,0.00,Wunderground v.1.15,2013-01-21 22:20:00,
2013-01-21 17:30:00,19.2,-4.0,29.91,WSW,256,0.0,0.0,35,0.00,,,0.00,Wunderground v.1.15,2013-01-21 22:30:00,
2013-01-21 17:40:00,19.2,-4.0,29.90,WSW,256,0.0,0.0,35,0.00,,,0.00,Wunderground v.1.15,2013-01-21 22:40:00,
2013-01-21 17:50:00,19.2,-4.0,29.90,WSW,256,0.0,0.0,35,0.00,,,0.00,Wunderground v.1.15,2013-01-21 22:50:00,
2013-01-21 18:00:00,19.1,-3.0,29.90,WSW,256,0.0,0.0,37,0.00,,,0.00,Wunderground v.1.15,2013-01-21 23:00:00,
2013-01-21 18:10:00,18.9,1.0,29.90,WSW,256,0.0,0.0,45,0.00,,,0.00,Wunderground v.1.15,2013-01-21 23:10:00,
2013-01-21 18:20:00,18.4,1.5,29.90,WSW,256,0.0,0.0,47,0.00,,,0.00,Wunderground v.1.15,2013-01-21 23:20:00,
2013-01-21 18:30:00,18.1,1.7,29.90,WSW,256,0.0,0.0,48,0.00,,,0.00,Wunderground v.1.15,2013-01-21 23:30:00,
2013-01-21 18:40:00,18.1,0.8,29.90,WSW,256,0.0,0.0,46,0.00,,,0.00,Wunderground v.1.15,2013-01-21 23:40:00,
2013-01-21 18:50:00,18.1,2.1,29.90,WSW,256,0.0,0.0,49,0.00,,,0.00,Wunderground v.1.15,2013-01-21 23:50:00,
2013-01-21 19:00:00,18.0,1.6,29.90,WSW,256,0.0,0.0,48,0.00,,,0.00,Wunderground v.1.15,2013-01-22 00:00:00,
2013-01-21 19:10:00,18.0,1.1,29.90,WSW,256,0.0,2.0,47,0.00,,,0.00,Wunderground v.1.15,2013-01-22 00:10:00,
2013-01-21 19:20:00,18.0,0.2,29.91,WSW,256,0.0,0.0,45,0.00,,,0.00,Wunderground v.1.15,2013-01-22 00:20:00,
2013-01-21 19:30:00,18.1,0.8,29.91,WSW,256,1.0,1.0,46,0.00,,,0.00,Wunderground v.1.15,2013-01-22 00:30:00,
2013-01-21 19:40:00,18.3,-0.5,29.91,WSW,257,0.0,0.0,43,0.00,,,0.00,Wunderground v.1.15,2013-01-22 00:40:00,
2013-01-21 19:50:00,18.4,-1.4,29.91,WSW,257,0.0,0.0,41,0.00,,,0.00,Wunderground v.1.15,2013-01-22 00:50:00,
2013-01-21 20:00:00,18.6,0.7,29.91,WSW,257,0.0,0.0,45,0.00,,,0.00,Wunderground v.1.15,2013-01-22 01:00:00,
2013-01-21 20:10:00,18.4,-0.9,29.91,WSW,257,0.0,0.0,42,0.00,,,0.00,Wunderground v.1.15,2013-01-22 01:10:00,
2013-01-21 20:20:00,18.6,0.7,29.91,WSW,257,1.0,1.0,45,0.00,,,0.00,Wunderground v.1.15,2013-01-22 01:20:00,
2013-01-21 20:30:00,18.6,-0.2,29.91,WSW,257,0.0,0.0,43,0.00,,,0.00,Wunderground v.1.15,2013-01-22 01:30:00,
2013-01-21 20:40:00,18.6,1.2,29.91,WSW,257,0.0,0.0,46,0.00,,,0.00,Wunderground v.1.15,2013-01-22 01:40:00,
2013-01-21 20:50:00,18.6,2.1,29.90,WSW,257,0.0,0.0,48,0.00,,,0.00,Wunderground v.1.15,2013-01-22 01:50:00,
2013-01-21 21:00:00,18.6,1.7,29.90,WSW,257,0.0,0.0,47,0.00,,,0.00,Wunderground v.1.15,2013-01-22 02:00:00,
2013-01-21 21:10:00,18.6,3.9,29.90,WSW,257,0.0,0.0,52,0.00,,,0.00,Wunderground v.1.15,2013-01-22 02:10:00,
2013-01-21 21:20:00,18.6,5.5,29.90,WSW,257,0.0,2.0,56,0.00,,,0.00,Wunderground v.1.15,2013-01-22 02:20:00,
2013-01-21 21:30:00,18.6,6.3,29.90,WSW,257,1.0,2.0,58,0.00,,,0.00,Wunderground v.1.15,2013-01-22 02:30:00,
2013-01-21 21:40:00,18.4,6.8,29.90,WSW,257,1.0,1.0,60,0.00,,,0.00,Wunderground v.1.15,2013-01-22 02:40:00,
2013-01-21 21:50:00,18.3,7.8,29.90,North,352,2.0,4.0,63,0.00,,,0.00,Wunderground v.1.15,2013-01-22 02:50:00,
2013-01-21 22:00:00,18.0,8.2,29.90,North,0,3.0,3.0,65,0.00,,,0.00,Wunderground v.1.15,2013-01-22 03:00:00,
2013-01-21 22:10:00,17.7,8.9,29.90,NNE,21,2.0,2.0,68,0.00,,,0.00,Wunderground v.1.15,2013-01-22 03:10:00,
2013-01-21 22:20:00,17.3,9.5,29.89,ENE,62,3.0,3.0,71,0.00,,,0.00,Wunderground v.1.15,2013-01-22 03:20:00,
2013-01-21 22:30:00,16.9,10.3,29.89,ENE,69,4.0,4.0,75,0.00,,,0.00,Wunderground v.1.15,2013-01-22 03:30:00,
2013-01-21 22:40:00,16.5,10.3,29.88,ENE,78,4.0,5.0,76,0.00,,,0.00,Wunderground v.1.15,2013-01-22 03:40:00,
2013-01-21 22:50:00,16.4,11.0,29.88,NE,41,4.0,4.0,79,0.00,,,0.00,Wunderground v.1.15,2013-01-22 03:50:00,
2013-01-21 23:00:00,16.2,11.1,29.88,NE,46,4.0,4.0,80,0.00,,,0.00,Wunderground v.1.15,2013-01-22 04:00:00,
2013-01-21 23:10:00,15.9,11.1,29.86,NE,38,3.0,4.0,81,0.00,,,0.00,Wunderground v.1.15,2013-01-22 04:10:00,
2013-01-21 23:20:00,15.6,11.1,29.83,NNE,30,4.0,6.0,82,0.00,,,0.00,Wunderground v.1.15,2013-01-22 04:20:00,
2013-01-21 23:30:00,15.2,11.0,29.83,NE,41,4.0,4.0,83,0.00,,,0.00,Wunderground v.1.15,2013-01-22 04:30:00,
2013-01-21 23:40:00,15.1,11.1,29.82,ENE,72,3.0,5.0,84,0.00,,,0.00,Wunderground v.1.15,2013-01-22 04:40:00,
2013-01-21 23:50:00,14.9,10.9,29.82,NNE,20,4.0,6.0,84,0.00,,,0.00,Wunderground v.1.15,2013-01-22 04:50:00,